Time;durP1;ratioP1;P1;durP2;ratioP2;P2;SDS_P1;SDS_P2;PMS_P1;PMS_P2;Temp;Humidity;BMP_temperature;BMP_pressure;BME280_temperature;BME280_humidity;BME280_pressure;Samples;Min_cycle;Max_cycle;Signal;HPM_P1;HPM_P2
2023/12/10 00:00:28;;;;;;;16.87;4.17;;;11.30;99.90;;;;;;4959414;28;20340;-65
2023/12/10 00:02:54;;;;;;;20.00;3.97;;;11.30;99.90;;;;;;4964325;28;20707;-66
2023/12/10 00:05:19;;;;;;;11.90;2.93;;;11.30;99.90;;;;;;4957288;28;20307;-66
2023/12/10 00:07:45;;;;;;;11.90;2.90;;;11.30;99.90;;;;;;4960816;28;20186;-65
2023/12/10 00:10:11;;;;;;;18.17;4.00;;;11.30;99.90;;;;;;4967577;28;20665;-65
2023/12/10 00:12:36;;;;;;;17.47;3.87;;;11.30;99.90;;;;;;4954901;28;20197;-66
2023/12/10 00:15:03;;;;;;;26.73;4.43;;;11.30;99.90;;;;;;4956264;28;20179;-65
2023/12/10 00:17:29;;;;;;;15.63;4.17;;;11.20;99.90;;;;;;4958140;28;20213;-65
2023/12/10 00:19:55;;;;;;;16.57;3.97;;;11.30;99.90;;;;;;4958565;28;20588;-66
2023/12/10 00:22:21;;;;;;;24.13;5.67;;;11.20;99.90;;;;;;4957693;28;20529;-65
2023/12/10 00:24:47;;;;;;;10.13;3.27;;;11.20;99.90;;;;;;4958840;28;20210;-64
2023/12/10 00:27:12;;;;;;;16.20;4.47;;;11.20;99.90;;;;;;4962646;28;20562;-65
2023/12/10 00:29:38;;;;;;;11.93;3.53;;;11.20;99.90;;;;;;4959723;28;20196;-65
2023/12/10 00:32:04;;;;;;;17.50;4.50;;;11.20;99.90;;;;;;4958799;28;20195;-65
2023/12/10 00:34:30;;;;;;;20.63;3.67;;;11.30;99.90;;;;;;4956272;28;20214;-65
2023/12/10 00:36:55;;;;;;;14.23;5.07;;;11.30;99.90;;;;;;4963665;28;20917;-65
2023/12/10 00:39:21;;;;;;;22.30;4.17;;;11.20;99.90;;;;;;4954187;28;20185;-65
2023/12/10 00:41:47;;;;;;;26.07;5.47;;;11.20;99.90;;;;;;4966061;28;20274;-65
2023/12/10 00:44:13;;;;;;;23.07;7.10;;;11.30;99.90;;;;;;4962426;28;20979;-65
2023/12/10 00:46:38;;;;;;;12.97;4.37;;;11.30;99.90;;;;;;4963428;28;20269;-64
2023/12/10 00:49:04;;;;;;;28.83;6.00;;;11.30;99.90;;;;;;4959551;28;20197;-64
2023/12/10 00:51:30;;;;;;;24.83;5.30;;;11.30;99.90;;;;;;4959503;28;20461;-65
2023/12/10 00:53:55;;;;;;;17.57;5.73;;;11.30;99.90;;;;;;4961439;28;20206;-65
2023/12/10 00:56:21;;;;;;;21.87;4.70;;;11.30;99.90;;;;;;4961040;28;20209;-65
2023/12/10 00:58:47;;;;;;;21.87;5.80;;;11.30;99.90;;;;;;4960336;28;20183;-65
2023/12/10 01:01:12;;;;;;;24.10;7.60;;;11.30;99.90;;;;;;4962748;28;20640;-64
2023/12/10 01:03:38;;;;;;;19.67;4.73;;;11.30;99.90;;;;;;4961360;28;20247;-65
2023/12/10 01:06:04;;;;;;;29.20;5.27;;;11.30;99.90;;;;;;4958650;28;20234;-65
2023/12/10 01:08:30;;;;;;;15.80;4.63;;;11.30;99.90;;;;;;4961518;28;20669;-65
2023/12/10 01:10:57;;;;;;;25.83;4.60;;;11.30;99.90;;;;;;4961120;28;20477;-65
2023/12/10 01:13:24;;;;;;;21.87;4.83;;;11.30;99.90;;;;;;4958098;28;20973;-65
2023/12/10 01:15:51;;;;;;;19.83;4.63;;;11.20;99.90;;;;;;4962910;28;20478;-66
2023/12/10 01:18:16;;;;;;;15.90;5.23;;;11.30;99.90;;;;;;4961643;28;20934;-66
2023/12/10 01:20:42;;;;;;;25.10;5.43;;;11.30;99.90;;;;;;4956866;28;20422;-66
2023/12/10 01:23:08;;;;;;;21.63;5.30;;;11.30;99.90;;;;;;4957381;28;20465;-67
2023/12/10 01:25:37;;;;;;;21.63;5.60;;;11.20;99.90;;;;;;4960904;28;20217;-66
2023/12/10 01:28:02;;;;;;;20.93;6.10;;;11.20;99.90;;;;;;4966254;28;20558;-65
2023/12/10 01:30:29;;;;;;;22.40;7.40;;;11.20;99.90;;;;;;4962191;28;20437;-67
2023/12/10 01:32:58;;;;;;;34.80;6.23;;;11.20;99.90;;;;;;4955746;28;20693;-65
2023/12/10 01:35:24;;;;;;;21.47;5.60;;;11.10;99.90;;;;;;4964906;28;20819;-66
2023/12/10 01:37:49;;;;;;;15.70;4.67;;;11.10;99.90;;;;;;4962934;28;20532;-66
2023/12/10 01:40:15;;;;;;;20.63;4.83;;;11.10;99.90;;;;;;4965938;28;20437;-66
2023/12/10 01:42:41;;;;;;;19.10;4.60;;;11.10;99.90;;;;;;4968958;28;20179;-66
2023/12/10 01:45:08;;;;;;;11.00;3.20;;;10.90;99.90;;;;;;4963745;28;20452;-66
2023/12/10 01:47:35;;;;;;;12.90;3.67;;;10.30;99.90;;;;;;4963750;28;20538;-66
2023/12/10 01:50:04;;;;;;;7.97;2.23;;;9.90;99.90;;;;;;4964123;28;20529;-66
2023/12/10 01:52:30;;;;;;;7.17;2.10;;;9.70;99.90;;;;;;4967685;28;20940;-63
2023/12/10 01:54:56;;;;;;;10.60;3.03;;;9.70;99.90;;;;;;4959979;28;20804;-63
2023/12/10 01:57:22;;;;;;;13.83;2.50;;;9.60;99.90;;;;;;4966539;28;20466;-63
2023/12/10 01:59:50;;;;;;;10.43;2.90;;;9.60;99.90;;;;;;4970039;28;20198;-64
2023/12/10 02:02:16;;;;;;;6.13;2.27;;;9.60;99.90;;;;;;4966164;28;20191;-63
2023/12/10 02:04:41;;;;;;;7.93;2.00;;;9.60;99.90;;;;;;4969023;28;20811;-65
2023/12/10 02:07:07;;;;;;;8.77;2.73;;;9.70;99.90;;;;;;4956660;28;21145;-65
2023/12/10 02:09:33;;;;;;;11.50;2.47;;;9.70;99.90;;;;;;4966534;28;20241;-65
2023/12/10 02:11:58;;;;;;;9.83;3.00;;;9.70;99.90;;;;;;4960935;28;20205;-65
2023/12/10 02:14:24;;;;;;;9.53;2.67;;;9.80;99.90;;;;;;4972590;28;20241;-65
2023/12/10 02:16:50;;;;;;;15.37;4.00;;;9.80;99.90;;;;;;4963905;28;20673;-65
2023/12/10 02:19:15;;;;;;;13.87;3.27;;;9.80;99.90;;;;;;4965736;28;20270;-65
2023/12/10 02:21:44;;;;;;;9.57;2.90;;;9.90;99.90;;;;;;4961355;28;20966;-65
2023/12/10 02:24:14;;;;;;;7.63;2.73;;;9.90;99.90;;;;;;4965602;28;20214;-65
2023/12/10 02:26:40;;;;;;;20.13;4.00;;;10.00;99.90;;;;;;4964532;28;21249;-65
2023/12/10 02:29:06;;;;;;;20.90;3.73;;;10.00;99.90;;;;;;4967768;28;20457;-65
2023/12/10 02:31:31;;;;;;;14.63;4.00;;;9.90;99.90;;;;;;4963932;28;20221;-65
2023/12/10 02:33:57;;;;;;;11.77;4.20;;;9.90;99.90;;;;;;4964168;28;20473;-65
2023/12/10 02:36:23;;;;;;;17.87;3.63;;;9.90;99.90;;;;;;4966245;28;20213;-65
2023/12/10 02:38:49;;;;;;;14.17;3.50;;;9.90;99.90;;;;;;4965107;28;20186;-65
2023/12/10 02:41:15;;;;;;;13.77;4.10;;;9.90;99.90;;;;;;4970829;28;20225;-65
2023/12/10 02:43:41;;;;;;;14.97;3.93;;;9.90;99.90;;;;;;4968340;28;20510;-66
2023/12/10 02:46:06;;;;;;;15.83;3.70;;;9.90;99.90;;;;;;4967996;28;20896;-65
2023/12/10 02:48:32;;;;;;;17.00;3.83;;;10.00;99.90;;;;;;4970047;28;20214;-65
2023/12/10 02:50:58;;;;;;;12.90;4.37;;;10.10;99.90;;;;;;4971545;28;20258;-65
2023/12/10 02:53:23;;;;;;;25.20;4.23;;;10.10;99.90;;;;;;4964784;28;20447;-65
2023/12/10 02:55:49;;;;;;;20.63;4.00;;;10.20;99.90;;;;;;4970924;28;20187;-65
2023/12/10 02:58:15;;;;;;;17.03;4.73;;;10.10;99.90;;;;;;4961501;28;20206;-65
2023/12/10 03:00:41;;;;;;;11.80;3.57;;;10.10;99.90;;;;;;4970949;28;20554;-65
2023/12/10 03:03:07;;;;;;;16.50;4.97;;;10.10;99.90;;;;;;4969407;28;20713;-65
2023/12/10 03:05:32;;;;;;;17.43;4.47;;;10.10;99.90;;;;;;4973331;28;20434;-65
2023/12/10 03:07:58;;;;;;;15.90;3.60;;;10.10;99.90;;;;;;4962423;28;20188;-65
2023/12/10 03:10:24;;;;;;;26.30;4.63;;;10.10;99.90;;;;;;4965632;28;20689;-65
2023/12/10 03:12:49;;;;;;;23.63;4.60;;;10.20;99.90;;;;;;4961896;28;20240;-65
2023/12/10 03:15:15;;;;;;;19.17;4.07;;;10.20;99.90;;;;;;4970514;28;20198;-65
2023/12/10 03:17:40;;;;;;;17.63;5.60;;;10.20;99.90;;;;;;4968774;28;20225;-65
2023/12/10 03:20:07;;;;;;;12.60;3.47;;;10.30;99.90;;;;;;4969133;28;20175;-65
2023/12/10 03:22:33;;;;;;;21.33;4.67;;;10.30;99.90;;;;;;4965071;28;20181;-65
2023/12/10 03:24:58;;;;;;;15.37;4.57;;;10.40;99.90;;;;;;4961118;28;20486;-65
2023/12/10 03:27:24;;;;;;;21.67;5.57;;;10.30;99.90;;;;;;4969701;28;20190;-65
2023/12/10 03:29:50;;;;;;;10.27;3.80;;;10.30;99.90;;;;;;4960583;28;20201;-65
2023/12/10 03:32:16;;;;;;;13.60;3.90;;;10.40;99.90;;;;;;4970221;28;20790;-65
2023/12/10 03:34:41;;;;;;;19.17;5.97;;;10.40;99.90;;;;;;4965340;28;20216;-65
2023/12/10 03:37:08;;;;;;;23.23;4.63;;;10.50;99.90;;;;;;4972697;28;20248;-65
2023/12/10 03:39:33;;;;;;;17.17;4.27;;;10.50;99.90;;;;;;4966723;28;20425;-65
2023/12/10 03:41:59;;;;;;;19.40;3.70;;;10.50;99.90;;;;;;4974511;28;20930;-65
2023/12/10 03:44:25;;;;;;;13.03;4.30;;;10.60;99.90;;;;;;4972472;28;20837;-65
2023/12/10 03:46:50;;;;;;;19.83;3.73;;;10.60;99.90;;;;;;4963626;28;20314;-65
2023/12/10 03:49:16;;;;;;;22.40;3.90;;;10.60;99.90;;;;;;4963173;28;20261;-65
2023/12/10 03:51:42;;;;;;;19.47;4.20;;;10.60;99.90;;;;;;4953354;28;20671;-65
2023/12/10 03:54:07;;;;;;;18.63;4.67;;;10.70;99.90;;;;;;4961273;28;20292;-65
2023/12/10 03:56:33;;;;;;;19.57;4.30;;;10.60;99.90;;;;;;4953152;28;20229;-65
2023/12/10 03:58:59;;;;;;;18.87;4.70;;;10.50;99.90;;;;;;4970513;28;20183;-65
2023/12/10 04:01:24;;;;;;;11.10;3.97;;;10.50;99.90;;;;;;4962841;28;20201;-65
2023/12/10 04:03:50;;;;;;;13.87;3.80;;;10.60;99.90;;;;;;4969509;28;20256;-65
2023/12/10 04:06:16;;;;;;;22.53;3.90;;;10.60;99.90;;;;;;4957330;28;20203;-65
2023/12/10 04:08:42;;;;;;;17.33;3.57;;;10.60;99.90;;;;;;4968759;28;20170;-65
2023/12/10 04:11:08;;;;;;;22.93;4.67;;;10.60;99.90;;;;;;4972201;28;20777;-65
2023/12/10 04:13:33;;;;;;;8.80;3.13;;;10.60;99.90;;;;;;4975561;28;20204;-65
2023/12/10 04:16:00;;;;;;;9.80;3.70;;;10.70;99.90;;;;;;4967951;28;20195;-65
2023/12/10 04:18:27;;;;;;;30.53;3.97;;;10.70;99.90;;;;;;4961999;28;20210;-65
2023/12/10 04:20:52;;;;;;;23.77;5.20;;;10.70;99.90;;;;;;4966239;28;20469;-65
2023/12/10 04:23:18;;;;;;;13.80;3.70;;;10.70;99.90;;;;;;4969082;28;20439;-65
2023/12/10 04:25:44;;;;;;;11.27;3.53;;;10.70;99.90;;;;;;4966959;28;20707;-65
2023/12/10 04:28:09;;;;;;;18.53;5.30;;;10.60;99.90;;;;;;4966365;28;20185;-65
2023/12/10 04:30:35;;;;;;;22.30;5.03;;;10.60;99.90;;;;;;4961961;28;22071;-65
2023/12/10 04:33:01;;;;;;;20.63;4.00;;;10.60;99.90;;;;;;4964289;28;20200;-65
2023/12/10 04:35:26;;;;;;;8.13;3.57;;;10.60;99.90;;;;;;4971434;28;20251;-66
2023/12/10 04:37:52;;;;;;;17.03;3.43;;;10.60;99.90;;;;;;4961202;28;20623;-65
2023/12/10 04:40:17;;;;;;;18.60;5.23;;;10.60;99.90;;;;;;4966692;28;20178;-65
2023/12/10 04:42:43;;;;;;;14.60;3.87;;;10.50;99.90;;;;;;4966245;28;20178;-66
2023/12/10 04:45:09;;;;;;;11.47;3.47;;;10.60;99.90;;;;;;4970402;28;20206;-65
2023/12/10 04:47:36;;;;;;;18.17;4.00;;;10.50;99.90;;;;;;4963523;28;20226;-65
2023/12/10 04:50:02;;;;;;;14.03;3.57;;;10.50;99.90;;;;;;4968928;28;21114;-65
2023/12/10 04:52:29;;;;;;;12.40;3.27;;;10.50;99.90;;;;;;4961829;28;20422;-66
2023/12/10 04:54:56;;;;;;;14.60;4.00;;;10.60;99.90;;;;;;4963734;28;20429;-65
2023/12/10 04:57:22;;;;;;;15.00;3.80;;;10.50;99.90;;;;;;4964079;28;20503;-65
2023/12/10 04:59:48;;;;;;;16.80;3.40;;;10.50;99.90;;;;;;4967794;28;20460;-65
2023/12/10 05:02:13;;;;;;;17.93;5.27;;;10.50;99.90;;;;;;4963847;28;20197;-66
2023/12/10 05:04:39;;;;;;;12.30;3.50;;;10.60;99.90;;;;;;4967516;28;20216;-66
2023/12/10 05:07:04;;;;;;;13.17;3.30;;;10.60;99.90;;;;;;4965493;28;20218;-66
2023/12/10 05:09:32;;;;;;;13.73;3.10;;;10.60;99.90;;;;;;4970289;28;20190;-65
2023/12/10 05:11:57;;;;;;;11.97;4.10;;;10.60;99.90;;;;;;4964777;28;20194;-65
2023/12/10 05:14:23;;;;;;;8.07;3.10;;;10.50;99.90;;;;;;4962917;28;21101;-66
2023/12/10 05:16:48;;;;;;;12.80;3.10;;;10.50;99.90;;;;;;4964977;28;20587;-66
2023/12/10 05:19:14;;;;;;;14.13;3.20;;;10.50;99.90;;;;;;4966950;28;20190;-65
2023/12/10 05:21:40;;;;;;;11.57;3.13;;;10.50;99.90;;;;;;4969827;28;20694;-65
2023/12/10 05:24:05;;;;;;;13.47;3.27;;;10.50;99.90;;;;;;4971658;28;20290;-66
2023/12/10 05:26:31;;;;;;;17.80;4.70;;;10.60;99.90;;;;;;4977130;28;20189;-66
2023/12/10 05:28:57;;;;;;;12.10;2.90;;;10.60;99.90;;;;;;4968276;28;20179;-66
2023/12/10 05:31:22;;;;;;;14.67;3.13;;;10.60;99.90;;;;;;4968886;28;20697;-66
2023/12/10 05:33:48;;;;;;;16.13;3.80;;;10.60;99.90;;;;;;4962096;28;20658;-66
2023/12/10 05:36:14;;;;;;;9.40;3.00;;;10.50;99.90;;;;;;4964171;28;20270;-66
2023/12/10 05:38:40;;;;;;;11.90;3.17;;;10.60;99.90;;;;;;4976408;28;20472;-66
2023/12/10 05:41:06;;;;;;;16.07;4.33;;;10.50;99.90;;;;;;4972347;28;20437;-66
2023/12/10 05:43:31;;;;;;;13.40;4.10;;;10.60;99.90;;;;;;4968543;28;20231;-66
2023/12/10 05:45:57;;;;;;;18.97;4.43;;;10.70;99.90;;;;;;4966562;28;20179;-66
2023/12/10 05:48:22;;;;;;;8.90;3.00;;;10.70;99.90;;;;;;4969197;28;20233;-66
2023/12/10 05:50:48;;;;;;;19.47;5.90;;;10.70;99.90;;;;;;4959474;28;20186;-65
2023/12/10 05:53:14;;;;;;;12.50;3.70;;;10.70;99.90;;;;;;4960919;28;20209;-66
2023/12/10 05:55:39;;;;;;;9.10;3.00;;;10.70;99.90;;;;;;4965331;28;20986;-66
2023/12/10 05:58:05;;;;;;;16.50;3.80;;;10.70;99.90;;;;;;4965243;28;20214;-66
2023/12/10 06:00:31;;;;;;;15.07;3.07;;;10.60;99.90;;;;;;4969930;28;20213;-66
2023/12/10 06:02:56;;;;;;;16.37;3.20;;;10.60;99.90;;;;;;4969962;28;20214;-65
2023/12/10 06:05:22;;;;;;;18.03;3.50;;;10.60;99.90;;;;;;4964939;28;20269;-65
2023/12/10 06:07:48;;;;;;;12.70;3.53;;;10.60;99.90;;;;;;4962872;28;20280;-65
2023/12/10 06:10:13;;;;;;;11.30;3.57;;;10.60;99.90;;;;;;4961511;28;20182;-65
2023/12/10 06:12:39;;;;;;;7.67;3.07;;;10.60;99.90;;;;;;4966371;28;20280;-66
2023/12/10 06:15:05;;;;;;;13.07;3.00;;;10.60;99.90;;;;;;4966217;28;20269;-66
2023/12/10 06:17:30;;;;;;;16.60;3.43;;;10.60;99.90;;;;;;4960696;28;20224;-66
2023/12/10 06:19:56;;;;;;;8.40;3.30;;;10.60;99.90;;;;;;4969008;28;20715;-66
2023/12/10 06:22:22;;;;;;;16.83;3.70;;;10.50;99.90;;;;;;4961599;28;20179;-65
2023/12/10 06:24:48;;;;;;;12.27;3.13;;;10.50;99.90;;;;;;4968557;28;20201;-66
2023/12/10 06:27:13;;;;;;;16.13;3.93;;;10.50;99.90;;;;;;4961424;28;20187;-66
2023/12/10 06:29:39;;;;;;;13.43;3.13;;;10.50;99.90;;;;;;4965658;28;20445;-65
2023/12/10 06:32:05;;;;;;;10.50;3.07;;;10.60;99.90;;;;;;4965999;28;20178;-66
2023/12/10 06:34:30;;;;;;;22.23;4.40;;;10.60;99.90;;;;;;4964234;28;20261;-66
2023/12/10 06:36:56;;;;;;;12.43;3.90;;;10.60;99.90;;;;;;4964208;28;20203;-66
2023/12/10 06:39:22;;;;;;;11.00;3.53;;;10.60;99.90;;;;;;4964304;28;20189;-65
2023/12/10 06:41:47;;;;;;;19.27;4.23;;;10.50;99.90;;;;;;4966271;28;20187;-66
2023/12/10 06:44:20;;;;;;;12.43;3.57;;;10.60;99.90;;;;;;4969563;28;20214;-66
2023/12/10 06:46:46;;;;;;;12.80;2.90;;;10.60;99.90;;;;;;4960870;28;20183;-65
2023/12/10 06:49:12;;;;;;;15.37;3.73;;;10.50;99.90;;;;;;4971310;28;20422;-66
2023/12/10 06:51:37;;;;;;;10.00;3.40;;;10.50;99.90;;;;;;4967353;28;20202;-66
2023/12/10 06:54:03;;;;;;;20.33;4.00;;;10.50;99.90;;;;;;4969100;28;20210;-66
2023/12/10 06:56:29;;;;;;;16.70;3.20;;;10.50;99.90;;;;;;4972672;28;20751;-65
2023/12/10 06:58:54;;;;;;;11.03;3.33;;;10.50;99.90;;;;;;4966907;28;20185;-65
2023/12/10 07:01:20;;;;;;;18.37;4.40;;;10.50;99.90;;;;;;4969358;28;20274;-66
2023/12/10 07:03:46;;;;;;;14.00;3.33;;;10.50;99.90;;;;;;4965508;28;20583;-65
2023/12/10 07:06:11;;;;;;;10.67;3.07;;;10.40;99.90;;;;;;4969029;28;20281;-65
2023/12/10 07:08:37;;;;;;;14.70;3.93;;;10.50;99.90;;;;;;4966657;28;20189;-65
2023/12/10 07:11:05;;;;;;;18.17;5.53;;;10.50;99.90;;;;;;4968750;28;20322;-65
2023/12/10 07:13:30;;;;;;;10.00;3.70;;;10.50;99.90;;;;;;4961466;28;20222;-65
2023/12/10 07:15:56;;;;;;;7.77;2.60;;;10.50;99.90;;;;;;4966835;28;20508;-65
2023/12/10 07:18:21;;;;;;;17.17;4.80;;;10.60;99.90;;;;;;4969714;28;20547;-66
2023/12/10 07:20:47;;;;;;;14.23;3.00;;;10.60;99.90;;;;;;4969451;28;20261;-65
2023/12/10 07:23:13;;;;;;;10.33;5.40;;;10.60;99.90;;;;;;4966960;28;20274;-66
2023/12/10 07:25:39;;;;;;;17.03;4.10;;;10.60;99.90;;;;;;4968703;28;20504;-65
2023/12/10 07:28:04;;;;;;;10.33;3.80;;;10.70;99.90;;;;;;4958312;28;20178;-66
2023/12/10 07:30:30;;;;;;;13.97;4.60;;;10.70;99.90;;;;;;4962575;28;20190;-66
2023/12/10 07:32:56;;;;;;;15.00;3.90;;;10.70;99.90;;;;;;4965017;28;20226;-66
2023/12/10 07:35:22;;;;;;;13.30;3.67;;;10.70;99.90;;;;;;4962244;28;20199;-65
2023/12/10 07:37:48;;;;;;;12.23;3.87;;;10.70;99.90;;;;;;4973054;28;20963;-66
2023/12/10 07:40:13;;;;;;;15.27;3.00;;;10.60;99.90;;;;;;4962740;28;20273;-66
2023/12/10 07:42:39;;;;;;;12.57;2.93;;;10.70;99.90;;;;;;4964713;28;20201;-65
2023/12/10 07:45:05;;;;;;;13.53;3.17;;;10.70;99.90;;;;;;4962101;28;20187;-65
2023/12/10 07:47:31;;;;;;;15.50;3.73;;;10.60;99.90;;;;;;4969310;28;20209;-65
2023/12/10 07:49:56;;;;;;;12.43;2.80;;;10.60;99.90;;;;;;4966238;28;20423;-65
2023/12/10 07:52:22;;;;;;;12.07;3.37;;;10.60;99.90;;;;;;4967423;28;20672;-66
2023/12/10 07:54:47;;;;;;;16.70;3.63;;;10.60;99.90;;;;;;4962795;28;20207;-66
2023/12/10 07:57:13;;;;;;;12.97;4.00;;;10.60;99.90;;;;;;4972313;28;20198;-65
2023/12/10 07:59:38;;;;;;;18.00;3.40;;;10.60;99.90;;;;;;4964414;28;20616;-65
2023/12/10 08:02:04;;;;;;;15.07;4.57;;;10.60;99.90;;;;;;4962993;28;20273;-65
2023/12/10 08:04:30;;;;;;;12.60;3.60;;;10.60;99.90;;;;;;4970298;28;20226;-65
2023/12/10 08:06:55;;;;;;;11.43;4.53;;;10.70;99.90;;;;;;4967365;28;20694;-65
2023/12/10 08:09:21;;;;;;;8.50;2.53;;;10.70;99.90;;;;;;4959525;28;20329;-65
2023/12/10 08:11:47;;;;;;;8.73;3.40;;;10.70;99.90;;;;;;4964935;28;20585;-65
2023/12/10 08:14:13;;;;;;;20.27;4.33;;;10.70;99.90;;;;;;4969440;28;20793;-65
2023/12/10 08:16:38;;;;;;;13.30;3.50;;;10.60;99.90;;;;;;4965797;28;20193;-65
2023/12/10 08:19:04;;;;;;;19.17;3.83;;;10.60;99.90;;;;;;4958409;28;20182;-66
2023/12/10 08:21:30;;;;;;;10.87;3.13;;;10.60;99.90;;;;;;4969224;28;20182;-66
2023/12/10 08:23:55;;;;;;;19.30;3.30;;;10.60;99.90;;;;;;4963154;28;20209;-66
2023/12/10 08:26:21;;;;;;;13.40;4.00;;;10.70;99.90;;;;;;4965493;28;20263;-66
2023/12/10 08:28:47;;;;;;;12.60;3.00;;;10.70;99.90;;;;;;4959043;28;20758;-66
2023/12/10 08:31:13;;;;;;;19.37;3.70;;;10.70;99.90;;;;;;4966312;28;20532;-66
2023/12/10 08:33:39;;;;;;;19.30;3.97;;;10.70;99.90;;;;;;4956987;28;20569;-66
2023/12/10 08:36:04;;;;;;;18.10;3.90;;;10.80;99.90;;;;;;4961189;28;20273;-66
2023/12/10 08:38:30;;;;;;;14.53;3.73;;;10.80;99.90;;;;;;4965386;28;20847;-66
2023/12/10 08:40:56;;;;;;;20.30;3.70;;;10.80;99.90;;;;;;4966400;28;20179;-66
2023/12/10 08:43:21;;;;;;;19.13;4.03;;;10.80;99.90;;;;;;4960222;28;20458;-66
2023/12/10 08:45:47;;;;;;;15.40;4.77;;;10.80;99.90;;;;;;4963112;28;20613;-66
2023/12/10 08:48:13;;;;;;;16.73;5.50;;;10.80;99.90;;;;;;4962615;28;20186;-66
2023/12/10 08:50:39;;;;;;;20.27;4.60;;;10.80;99.90;;;;;;4962632;28;20980;-66
2023/12/10 08:53:05;;;;;;;16.30;3.67;;;10.80;99.90;;;;;;4960317;28;20461;-66
2023/12/10 08:55:30;;;;;;;11.50;3.03;;;10.80;99.90;;;;;;4959488;28;20317;-66
2023/12/10 08:57:56;;;;;;;14.30;3.00;;;10.90;99.90;;;;;;4962050;28;21089;-66
2023/12/10 09:00:22;;;;;;;21.13;4.17;;;10.90;99.90;;;;;;4966238;28;20186;-66
2023/12/10 09:02:47;;;;;;;21.47;4.40;;;10.80;99.90;;;;;;4965096;28;20198;-66
2023/12/10 09:05:13;;;;;;;18.30;3.67;;;10.90;99.90;;;;;;4960380;28;20554;-66
2023/12/10 09:07:38;;;;;;;12.30;3.73;;;10.90;99.90;;;;;;4966469;28;20195;-66
2023/12/10 09:10:04;;;;;;;12.57;3.67;;;11.00;99.90;;;;;;4961302;28;20780;-66
2023/12/10 09:12:30;;;;;;;18.57;4.77;;;11.10;99.90;;;;;;4966498;28;20182;-66
2023/12/10 09:14:56;;;;;;;18.03;3.43;;;11.00;99.90;;;;;;4961882;28;20210;-66
2023/12/10 09:17:21;;;;;;;14.87;3.97;;;11.00;99.90;;;;;;4960798;28;20569;-66
2023/12/10 09:19:48;;;;;;;13.77;3.43;;;11.10;99.90;;;;;;4963231;28;20429;-66
2023/12/10 09:22:13;;;;;;;12.93;3.10;;;11.00;99.90;;;;;;4962316;28;20676;-66
2023/12/10 09:24:40;;;;;;;14.13;3.10;;;11.00;99.90;;;;;;4962076;28;20453;-66
2023/12/10 09:27:06;;;;;;;28.93;4.03;;;11.00;99.90;;;;;;4966778;28;20178;-66
2023/12/10 09:29:38;;;;;;;14.67;2.63;;;11.10;99.90;;;;;;4967247;28;20447;-66
2023/12/10 09:32:07;;;;;;;16.50;3.53;;;11.10;99.90;;;;;;4961390;28;20198;-66
2023/12/10 09:34:33;;;;;;;14.73;4.33;;;11.10;99.90;;;;;;4962217;28;20465;-66
2023/12/10 09:36:59;;;;;;;11.40;4.00;;;11.20;99.90;;;;;;4959630;28;20453;-66
2023/12/10 09:39:26;;;;;;;15.30;5.77;;;11.20;99.90;;;;;;4963133;28;20190;-66
2023/12/10 09:41:53;;;;;;;19.07;3.50;;;11.20;99.90;;;;;;4954368;28;20469;-65
2023/12/10 09:44:18;;;;;;;13.50;3.60;;;11.20;99.90;;;;;;4959418;28;20537;-65
2023/12/10 09:46:44;;;;;;;16.30;3.90;;;11.30;99.90;;;;;;4967602;28;20517;-65
2023/12/10 09:49:10;;;;;;;20.37;3.67;;;11.30;99.90;;;;;;4972092;28;20194;-65
2023/12/10 09:51:36;;;;;;;16.90;3.10;;;11.30;99.90;;;;;;4976093;28;20554;-65
2023/12/10 09:54:01;;;;;;;10.43;3.00;;;11.30;99.90;;;;;;4971380;28;20454;-66
2023/12/10 09:56:27;;;;;;;16.77;5.10;;;11.40;99.90;;;;;;4968319;28;20623;-66
2023/12/10 09:58:52;;;;;;;17.30;3.83;;;11.40;99.90;;;;;;4963442;28;20218;-66
2023/12/10 10:01:18;;;;;;;13.97;3.27;;;11.30;99.90;;;;;;4963139;28;20186;-66
2023/12/10 10:03:44;;;;;;;13.80;3.77;;;11.20;99.90;;;;;;4969749;28;20584;-66
2023/12/10 10:06:09;;;;;;;13.60;4.10;;;11.30;99.90;;;;;;4972270;28;20205;-66
2023/12/10 10:08:35;;;;;;;11.10;2.73;;;11.40;99.90;;;;;;4963889;28;20215;-66
2023/12/10 10:11:01;;;;;;;10.93;3.50;;;11.30;99.90;;;;;;4966917;28;20589;-66
2023/12/10 10:13:26;;;;;;;10.93;3.37;;;11.30;99.90;;;;;;4965020;28;20705;-66
2023/12/10 10:15:53;;;;;;;10.60;3.33;;;11.30;99.90;;;;;;4969938;28;20436;-65
2023/12/10 10:18:20;;;;;;;14.17;3.47;;;11.30;99.90;;;;;;4962939;28;20218;-66
2023/12/10 10:20:46;;;;;;;13.80;3.30;;;11.20;99.90;;;;;;4969664;28;20430;-66
2023/12/10 10:23:14;;;;;;;12.97;5.13;;;11.20;99.90;;;;;;4964213;28;20524;-66
2023/12/10 10:25:40;;;;;;;20.30;3.70;;;11.20;99.90;;;;;;4966565;28;20501;-66
2023/12/10 10:28:09;;;;;;;8.00;2.60;;;11.20;99.90;;;;;;4965274;28;20939;-66
2023/12/10 10:30:35;;;;;;;10.27;3.63;;;11.30;99.90;;;;;;4966140;28;20429;-66
2023/12/10 10:33:01;;;;;;;12.10;2.83;;;11.20;99.90;;;;;;4964300;28;20453;-66
2023/12/10 10:35:27;;;;;;;15.60;3.60;;;11.20;99.90;;;;;;4962947;28;20445;-66
2023/12/10 10:37:53;;;;;;;16.83;4.33;;;11.30;99.90;;;;;;4966233;28;20594;-66
2023/12/10 10:40:20;;;;;;;12.40;3.20;;;11.30;99.90;;;;;;4961877;28;20417;-66
2023/12/10 10:42:45;;;;;;;14.43;3.30;;;11.30;99.90;;;;;;4968620;28;20921;-66
2023/12/10 10:45:11;;;;;;;10.40;3.10;;;11.30;99.90;;;;;;4964071;28;20516;-66
2023/12/10 10:47:37;;;;;;;9.87;2.90;;;11.40;99.90;;;;;;4973084;28;20585;-67
2023/12/10 10:50:04;;;;;;;16.57;3.70;;;11.40;99.90;;;;;;4953770;28;20198;-66
2023/12/10 10:52:33;;;;;;;14.80;3.73;;;11.50;99.90;;;;;;4966037;28;20182;-66
2023/12/10 10:55:00;;;;;;;11.47;3.00;;;11.60;99.90;;;;;;4963453;28;20433;-66
2023/12/10 10:57:36;;;;;;;11.70;3.80;;;11.60;99.90;;;;;;4958597;28;20552;-66
2023/12/10 11:00:17;;;;;;;9.83;3.30;;;11.70;99.90;;;;;;4961777;28;20454;-66
2023/12/10 11:02:47;;;;;;;16.47;3.20;;;11.60;99.90;;;;;;4963803;28;20424;-65
2023/12/10 11:05:13;;;;;;;7.80;2.83;;;11.60;99.90;;;;;;4958346;28;20465;-65
2023/12/10 11:07:42;;;;;;;15.57;3.70;;;11.40;99.90;;;;;;4957955;28;20438;-65
2023/12/10 11:10:08;;;;;;;14.93;3.10;;;11.50;99.90;;;;;;4963126;28;20465;-65
2023/12/10 11:12:40;;;;;;;17.90;3.37;;;11.40;99.90;;;;;;4960721;28;20968;-65
2023/12/10 11:15:21;;;;;;;13.50;3.97;;;11.40;99.90;;;;;;4959548;28;20438;-65
2023/12/10 11:17:58;;;;;;;16.57;3.03;;;11.50;99.90;;;;;;4960417;28;20480;-65
2023/12/10 11:20:44;;;;;;;16.33;3.10;;;11.50;99.90;;;;;;4964472;28;20422;-66
2023/12/10 11:23:12;;;;;;;17.10;3.80;;;11.70;99.90;;;;;;4965349;28;20521;-66
2023/12/10 11:25:38;;;;;;;17.43;3.77;;;11.80;99.90;;;;;;4961469;28;20966;-66
2023/12/10 11:28:10;;;;;;;9.70;3.40;;;12.00;99.90;;;;;;4960703;28;20455;-65
2023/12/10 11:30:36;;;;;;;13.20;3.20;;;12.00;99.90;;;;;;4961532;28;20426;-64
2023/12/10 11:33:02;;;;;;;13.77;4.40;;;12.00;99.90;;;;;;4960388;28;20777;-65
2023/12/10 11:35:27;;;;;;;12.33;3.43;;;12.10;99.90;;;;;;4954716;28;20513;-65
2023/12/10 11:37:53;;;;;;;12.83;3.57;;;12.10;99.90;;;;;;4962712;28;21082;-65
2023/12/10 11:40:19;;;;;;;11.63;3.50;;;12.20;99.90;;;;;;4959662;28;20187;-65
2023/12/10 11:42:44;;;;;;;13.53;4.30;;;12.10;99.90;;;;;;4961644;28;20369;-65
2023/12/10 11:45:13;;;;;;;15.33;3.60;;;12.00;99.90;;;;;;4961568;28;20182;-65
2023/12/10 11:47:45;;;;;;;12.63;3.73;;;12.00;99.90;;;;;;4963561;28;21088;-65
2023/12/10 11:50:12;;;;;;;11.03;3.37;;;11.90;99.90;;;;;;4957955;28;20426;-65
2023/12/10 11:52:39;;;;;;;17.30;4.13;;;11.90;99.90;;;;;;4961189;28;20418;-66
2023/12/10 11:55:07;;;;;;;7.57;2.77;;;11.90;99.90;;;;;;4962133;28;20871;-65
2023/12/10 11:57:33;;;;;;;11.50;3.70;;;11.70;99.90;;;;;;4962910;28;20481;-65
2023/12/10 12:00:01;;;;;;;7.80;2.53;;;11.80;99.90;;;;;;4967885;28;20447;-65
2023/12/10 12:02:28;;;;;;;12.60;3.90;;;11.80;99.90;;;;;;4958453;28;20594;-65
2023/12/10 12:04:54;;;;;;;10.50;2.80;;;11.90;99.90;;;;;;4965782;28;20528;-64
2023/12/10 12:07:27;;;;;;;8.87;2.93;;;11.80;99.90;;;;;;4957459;28;20850;-66
2023/12/10 12:09:54;;;;;;;10.20;3.90;;;11.90;99.90;;;;;;4959260;28;20461;-66
2023/12/10 12:12:23;;;;;;;9.60;4.33;;;11.80;99.90;;;;;;4956997;28;20449;-67
2023/12/10 12:14:51;;;;;;;10.13;3.33;;;11.90;99.90;;;;;;4957048;28;20477;-65
2023/12/10 12:17:19;;;;;;;12.67;4.20;;;11.80;99.90;;;;;;4959544;28;20567;-66
2023/12/10 12:19:45;;;;;;;11.00;3.50;;;11.90;99.90;;;;;;4959860;28;20437;-65
2023/12/10 12:22:10;;;;;;;14.10;3.47;;;12.00;99.90;;;;;;4960676;28;20897;-65
2023/12/10 12:24:39;;;;;;;12.23;4.03;;;11.90;99.90;;;;;;4959074;28;20213;-64
2023/12/10 12:27:08;;;;;;;14.97;3.83;;;11.80;99.90;;;;;;4960925;28;20183;-65
2023/12/10 12:29:35;;;;;;;17.47;3.97;;;11.90;99.90;;;;;;4962567;28;20446;-64
2023/12/10 12:32:04;;;;;;;11.57;3.93;;;11.90;99.90;;;;;;4966712;28;20425;-64